sensor_id;sensor_type;location;lat;lon;timestamp;pressure;altitude;pressure_sealevel;temperature;humidity
58879;BME280;44660;42.664;23.266;2022-11-15T00:01:09;95113.63;;;4.14;71.96
58879;BME280;44660;42.664;23.266;2022-11-15T00:03:34;95133.97;;;4.27;72.26
58879;BME280;44660;42.664;23.266;2022-11-15T00:06:04;95081.59;;;3.89;72.22
58879;BME280;44660;42.664;23.266;2022-11-15T00:08:33;95129.66;;;4.19;72.45
58879;BME280;44660;42.664;23.266;2022-11-15T00:11:00;95117.50;;;4.18;72.41
58879;BME280;44660;42.664;23.266;2022-11-15T00:13:26;95114.88;;;4.18;72.13
58879;BME280;44660;42.664;23.266;2022-11-15T00:15:52;95110.50;;;4.04;72.64
58879;BME280;44660;42.664;23.266;2022-11-15T00:18:18;95127.38;;;4.16;73.24
58879;BME280;44660;42.664;23.266;2022-11-15T00:20:44;95028.09;;;3.60;73.38
58879;BME280;44660;42.664;23.266;2022-11-15T00:23:09;95118.44;;;4.11;73.83
58879;BME280;44660;42.664;23.266;2022-11-15T00:25:35;95122.06;;;4.09;73.84
58879;BME280;44660;42.664;23.266;2022-11-15T00:28:01;95117.69;;;4.17;73.86
58879;BME280;44660;42.664;23.266;2022-11-15T00:30:27;95101.31;;;4.21;73.96
58879;BME280;44660;42.664;23.266;2022-11-15T00:32:53;95104.13;;;4.20;73.60
58879;BME280;44660;42.664;23.266;2022-11-15T00:35:18;95096.56;;;4.10;73.81
58879;BME280;44660;42.664;23.266;2022-11-15T00:37:44;95089.69;;;4.09;73.73
58879;BME280;44660;42.664;23.266;2022-11-15T00:40:10;95041.19;;;3.75;73.18
58879;BME280;44660;42.664;23.266;2022-11-15T00:42:36;95118.50;;;4.17;73.27
58879;BME280;44660;42.664;23.266;2022-11-15T00:45:02;95108.59;;;4.19;73.07
58879;BME280;44660;42.664;23.266;2022-11-15T00:47:27;95110.22;;;4.20;73.25
58879;BME280;44660;42.664;23.266;2022-11-15T00:49:53;95102.16;;;4.22;72.89
58879;BME280;44660;42.664;23.266;2022-11-15T00:52:18;95044.56;;;3.90;72.83
58879;BME280;44660;42.664;23.266;2022-11-15T00:54:43;95108.22;;;4.22;73.14
58879;BME280;44660;42.664;23.266;2022-11-15T00:57:09;95095.78;;;4.16;72.95
58879;BME280;44660;42.664;23.266;2022-11-15T00:59:34;95071.25;;;3.87;73.55
58879;BME280;44660;42.664;23.266;2022-11-15T01:02:00;95098.44;;;3.95;73.77
58879;BME280;44660;42.664;23.266;2022-11-15T01:04:26;95075.88;;;3.85;73.52
58879;BME280;44660;42.664;23.266;2022-11-15T01:06:52;95063.13;;;3.82;73.42
58879;BME280;44660;42.664;23.266;2022-11-15T01:09:17;95070.88;;;3.90;73.53
58879;BME280;44660;42.664;23.266;2022-11-15T01:11:43;95062.94;;;3.84;73.31
58879;BME280;44660;42.664;23.266;2022-11-15T01:14:09;95050.72;;;3.76;73.48
58879;BME280;44660;42.664;23.266;2022-11-15T01:16:34;95091.19;;;3.97;73.40
58879;BME280;44660;42.664;23.266;2022-11-15T01:19:00;95079.53;;;3.84;73.66
58879;BME280;44660;42.664;23.266;2022-11-15T01:21:25;95088.59;;;3.82;73.67
58879;BME280;44660;42.664;23.266;2022-11-15T01:23:55;95092.38;;;3.94;74.04
58879;BME280;44660;42.664;23.266;2022-11-15T01:26:21;95066.31;;;3.78;74.26
58879;BME280;44660;42.664;23.266;2022-11-15T01:28:47;95062.47;;;3.80;74.09
58879;BME280;44660;42.664;23.266;2022-11-15T01:31:16;95095.69;;;4.03;73.47
58879;BME280;44660;42.664;23.266;2022-11-15T01:33:42;95072.94;;;3.95;72.96
58879;BME280;44660;42.664;23.266;2022-11-15T01:36:11;95047.34;;;3.82;72.45
58879;BME280;44660;42.664;23.266;2022-11-15T01:38:37;95068.63;;;3.87;72.81
58879;BME280;44660;42.664;23.266;2022-11-15T01:41:03;95068.88;;;3.92;72.87
58879;BME280;44660;42.664;23.266;2022-11-15T01:43:29;95082.28;;;3.98;72.82
58879;BME280;44660;42.664;23.266;2022-11-15T01:46:02;95085.66;;;3.91;72.96
58879;BME280;44660;42.664;23.266;2022-11-15T01:48:34;95064.63;;;3.70;73.01
58879;BME280;44660;42.664;23.266;2022-11-15T01:51:03;94998.94;;;3.18;73.63
58879;BME280;44660;42.664;23.266;2022-11-15T01:53:32;95071.91;;;3.74;73.59
58879;BME280;44660;42.664;23.266;2022-11-15T01:56:05;95045.13;;;3.64;73.82
58879;BME280;44660;42.664;23.266;2022-11-15T01:58:32;95076.78;;;3.92;73.58
58879;BME280;44660;42.664;23.266;2022-11-15T02:00:58;95070.88;;;3.90;73.10
58879;BME280;44660;42.664;23.266;2022-11-15T02:03:30;95075.38;;;3.97;72.79
58879;BME280;44660;42.664;23.266;2022-11-15T02:05:59;95030.78;;;3.67;72.55
58879;BME280;44660;42.664;23.266;2022-11-15T02:08:24;95081.69;;;4.02;72.18
58879;BME280;44660;42.664;23.266;2022-11-15T02:10:50;95064.41;;;3.93;72.03
58879;BME280;44660;42.664;23.266;2022-11-15T02:13:16;95036.28;;;3.72;72.07
58879;BME280;44660;42.664;23.266;2022-11-15T02:16:01;95026.91;;;3.63;72.43
58879;BME280;44660;42.664;23.266;2022-11-15T02:18:37;95075.94;;;3.92;72.41
58879;BME280;44660;42.664;23.266;2022-11-15T02:21:15;95061.00;;;3.71;72.70
58879;BME280;44660;42.664;23.266;2022-11-15T02:24:04;95077.28;;;3.81;72.90
58879;BME280;44660;42.664;23.266;2022-11-15T02:32:41;95073.19;;;3.79;72.40
58879;BME280;44660;42.664;23.266;2022-11-15T02:38:02;95067.69;;;3.73;72.64
58879;BME280;44660;42.664;23.266;2022-11-15T02:43:10;95074.88;;;3.65;73.45
58879;BME280;44660;42.664;23.266;2022-11-15T02:46:49;95061.78;;;3.50;74.00
58879;BME280;44660;42.664;23.266;2022-11-15T02:49:09;95061.22;;;3.54;73.73
58879;BME280;44660;42.664;23.266;2022-11-15T02:51:35;95069.13;;;3.54;74.25
58879;BME280;44660;42.664;23.266;2022-11-15T02:54:01;95074.88;;;3.65;74.02
58879;BME280;44660;42.664;23.266;2022-11-15T02:56:26;95073.88;;;3.66;73.67
58879;BME280;44660;42.664;23.266;2022-11-15T03:02:08;95071.81;;;3.61;73.75
58879;BME280;44660;42.664;23.266;2022-11-15T03:05:04;94921.44;;;2.56;73.88
58879;BME280;44660;42.664;23.266;2022-11-15T03:13:26;95074.66;;;3.81;73.35
58879;BME280;44660;42.664;23.266;2022-11-15T03:18:46;95060.22;;;3.77;73.69
58879;BME280;44660;42.664;23.266;2022-11-15T03:21:14;95063.66;;;3.78;73.88
58879;BME280;44660;42.664;23.266;2022-11-15T03:23:42;95066.38;;;3.84;74.25
58879;BME280;44660;42.664;23.266;2022-11-15T03:26:12;95064.97;;;3.88;74.20
58879;BME280;44660;42.664;23.266;2022-11-15T03:28:43;95062.47;;;4.02;74.13
58879;BME280;44660;42.664;23.266;2022-11-15T03:31:13;95055.47;;;4.09;73.90
58879;BME280;44660;42.664;23.266;2022-11-15T03:34:00;94976.81;;;3.71;73.63
58879;BME280;44660;42.664;23.266;2022-11-15T03:36:29;95052.13;;;4.22;73.79
58879;BME280;44660;42.664;23.266;2022-11-15T03:38:59;95051.53;;;4.27;73.95
58879;BME280;44660;42.664;23.266;2022-11-15T03:41:36;95046.16;;;4.35;73.83
58879;BME280;44660;42.664;23.266;2022-11-15T03:47:24;95051.59;;;4.62;73.44
58879;BME280;44660;42.664;23.266;2022-11-15T03:49:55;95042.53;;;4.71;73.28
58879;BME280;44660;42.664;23.266;2022-11-15T03:52:23;95030.19;;;4.71;73.11
58879;BME280;44660;42.664;23.266;2022-11-15T03:54:54;95010.31;;;4.69;73.02
58879;BME280;44660;42.664;23.266;2022-11-15T03:57:20;95035.94;;;4.88;73.12
58879;BME280;44660;42.664;23.266;2022-11-15T03:59:46;95039.19;;;4.90;72.85
58879;BME280;44660;42.664;23.266;2022-11-15T04:02:12;95008.75;;;4.81;72.68
58879;BME280;44660;42.664;23.266;2022-11-15T04:04:37;95029.50;;;4.98;72.24
58879;BME280;44660;42.664;23.266;2022-11-15T04:07:03;95015.03;;;4.80;72.20
58879;BME280;44660;42.664;23.266;2022-11-15T04:09:29;95016.38;;;4.69;72.87
58879;BME280;44660;42.664;23.266;2022-11-15T04:11:54;94950.13;;;4.31;72.98
58879;BME280;44660;42.664;23.266;2022-11-15T04:14:20;94948.50;;;4.30;73.00
58879;BME280;44660;42.664;23.266;2022-11-15T04:16:45;95013.41;;;4.79;72.98
58879;BME280;44660;42.664;23.266;2022-11-15T04:19:11;95025.81;;;4.92;73.48
58879;BME280;44660;42.664;23.266;2022-11-15T04:21:54;95016.47;;;4.89;74.38
58879;BME280;44660;42.664;23.266;2022-11-15T04:24:40;95024.63;;;4.95;74.69
58879;BME280;44660;42.664;23.266;2022-11-15T04:27:06;95004.25;;;4.75;75.04
58879;BME280;44660;42.664;23.266;2022-11-15T04:29:31;94991.63;;;4.64;75.25
58879;BME280;44660;42.664;23.266;2022-11-15T04:32:01;95020.31;;;4.87;75.47
58879;BME280;44660;42.664;23.266;2022-11-15T04:34:26;95003.84;;;4.71;75.66
58879;BME280;44660;42.664;23.266;2022-11-15T04:36:51;95019.91;;;4.83;75.79
58879;BME280;44660;42.664;23.266;2022-11-15T04:39:35;95004.19;;;4.68;76.17
58879;BME280;44660;42.664;23.266;2022-11-15T04:42:01;95022.72;;;4.82;76.28
58879;BME280;44660;42.664;23.266;2022-11-15T04:44:26;95009.69;;;4.73;76.03
58879;BME280;44660;42.664;23.266;2022-11-15T04:46:52;95014.63;;;4.83;75.49
58879;BME280;44660;42.664;23.266;2022-11-15T04:49:17;95023.38;;;4.90;75.33
58879;BME280;44660;42.664;23.266;2022-11-15T04:51:42;95012.72;;;4.64;75.63
58879;BME280;44660;42.664;23.266;2022-11-15T04:54:08;95015.41;;;4.42;76.08
58879;BME280;44660;42.664;23.266;2022-11-15T04:56:33;95007.88;;;4.39;76.80
58879;BME280;44660;42.664;23.266;2022-11-15T04:58:59;95029.50;;;4.63;76.67
58879;BME280;44660;42.664;23.266;2022-11-15T05:01:24;95002.47;;;4.47;76.53
58879;BME280;44660;42.664;23.266;2022-11-15T05:03:50;95037.00;;;4.66;76.48
58879;BME280;44660;42.664;23.266;2022-11-15T05:06:34;95024.06;;;4.71;76.51
58879;BME280;44660;42.664;23.266;2022-11-15T05:09:00;95015.13;;;4.58;76.25
58879;BME280;44660;42.664;23.266;2022-11-15T05:11:25;95016.13;;;4.57;76.76
58879;BME280;44660;42.664;23.266;2022-11-15T05:13:52;95020.84;;;4.69;76.06
58879;BME280;44660;42.664;23.266;2022-11-15T05:16:18;95035.00;;;4.68;76.33
58879;BME280;44660;42.664;23.266;2022-11-15T05:18:43;95024.78;;;4.51;76.74
58879;BME280;44660;42.664;23.266;2022-11-15T05:21:11;95029.25;;;4.51;77.13
58879;BME280;44660;42.664;23.266;2022-11-15T05:23:37;95020.69;;;4.42;77.15
58879;BME280;44660;42.664;23.266;2022-11-15T05:26:04;95027.19;;;4.46;77.18
58879;BME280;44660;42.664;23.266;2022-11-15T05:28:30;95017.09;;;4.50;77.08
58879;BME280;44660;42.664;23.266;2022-11-15T05:31:06;95008.34;;;4.49;77.18
58879;BME280;44660;42.664;23.266;2022-11-15T05:33:36;95020.38;;;4.58;77.25
58879;BME280;44660;42.664;23.266;2022-11-15T05:36:06;95021.63;;;4.63;77.50
58879;BME280;44660;42.664;23.266;2022-11-15T05:38:34;95021.22;;;4.66;77.50
58879;BME280;44660;42.664;23.266;2022-11-15T05:41:00;95023.63;;;4.61;77.70
58879;BME280;44660;42.664;23.266;2022-11-15T05:43:27;94930.78;;;3.88;78.09
58879;BME280;44660;42.664;23.266;2022-11-15T05:45:54;95008.94;;;4.45;78.62
58879;BME280;44660;42.664;23.266;2022-11-15T05:48:20;94950.78;;;4.11;78.54
58879;BME280;44660;42.664;23.266;2022-11-15T05:50:46;95002.31;;;4.55;78.69
58879;BME280;44660;42.664;23.266;2022-11-15T05:53:14;95026.16;;;4.82;78.30
58879;BME280;44660;42.664;23.266;2022-11-15T05:55:41;95023.75;;;4.87;78.15
58879;BME280;44660;42.664;23.266;2022-11-15T05:58:06;95023.38;;;4.90;77.75
58879;BME280;44660;42.664;23.266;2022-11-15T06:00:32;94996.91;;;4.64;77.41
58879;BME280;44660;42.664;23.266;2022-11-15T06:02:58;95003.84;;;4.71;77.37
58879;BME280;44660;42.664;23.266;2022-11-15T06:05:23;95026.81;;;4.91;77.51
58879;BME280;44660;42.664;23.266;2022-11-15T06:07:49;95032.69;;;4.86;78.00
58879;BME280;44660;42.664;23.266;2022-11-15T06:10:14;95027.34;;;4.73;78.14
58879;BME280;44660;42.664;23.266;2022-11-15T06:12:40;94988.31;;;4.48;78.07
58879;BME280;44660;42.664;23.266;2022-11-15T06:15:06;95030.22;;;4.78;78.06
58879;BME280;44660;42.664;23.266;2022-11-15T06:17:31;95038.19;;;4.92;78.30
58879;BME280;44660;42.664;23.266;2022-11-15T06:19:57;94949.75;;;4.40;77.93
58879;BME280;44660;42.664;23.266;2022-11-15T06:22:22;94986.19;;;4.72;77.26
58879;BME280;44660;42.664;23.266;2022-11-15T06:24:48;95031.13;;;4.99;77.04
58879;BME280;44660;42.664;23.266;2022-11-15T06:27:14;95026.47;;;5.01;77.12
58879;BME280;44660;42.664;23.266;2022-11-15T06:29:39;95017.28;;;4.90;76.95
58879;BME280;44660;42.664;23.266;2022-11-15T06:32:05;94946.88;;;4.35;77.22
58879;BME280;44660;42.664;23.266;2022-11-15T06:34:31;95021.75;;;4.89;76.93
58879;BME280;44660;42.664;23.266;2022-11-15T06:36:56;94962.81;;;4.55;76.48
58879;BME280;44660;42.664;23.266;2022-11-15T06:39:22;95005.06;;;4.76;76.47
58879;BME280;44660;42.664;23.266;2022-11-15T06:41:47;95010.97;;;4.78;76.77
58879;BME280;44660;42.664;23.266;2022-11-15T06:44:13;94982.00;;;4.49;76.97
58879;BME280;44660;42.664;23.266;2022-11-15T06:46:39;95014.16;;;4.73;76.72
58879;BME280;44660;42.664;23.266;2022-11-15T06:49:04;95020.13;;;4.88;76.27
58879;BME280;44660;42.664;23.266;2022-11-15T06:51:30;95003.72;;;4.86;75.93
58879;BME280;44660;42.664;23.266;2022-11-15T06:53:55;95009.81;;;4.94;75.81
58879;BME280;44660;42.664;23.266;2022-11-15T06:56:21;95009.97;;;4.85;75.75
58879;BME280;44660;42.664;23.266;2022-11-15T06:58:46;95013.06;;;4.96;75.39
58879;BME280;44660;42.664;23.266;2022-11-15T07:01:12;95002.75;;;5.01;75.06
58879;BME280;44660;42.664;23.266;2022-11-15T07:03:39;95028.94;;;5.09;75.24
58879;BME280;44660;42.664;23.266;2022-11-15T07:06:06;95017.00;;;5.13;74.74
58879;BME280;44660;42.664;23.266;2022-11-15T07:08:32;95017.75;;;5.00;75.10
58879;BME280;44660;42.664;23.266;2022-11-15T07:10:59;95021.66;;;5.11;75.32
58879;BME280;44660;42.664;23.266;2022-11-15T07:13:26;95015.19;;;5.20;75.26
58879;BME280;44660;42.664;23.266;2022-11-15T07:15:52;95010.53;;;5.22;75.36
58879;BME280;44660;42.664;23.266;2022-11-15T07:18:18;95016.47;;;5.38;75.17
58879;BME280;44660;42.664;23.266;2022-11-15T07:20:43;95011.41;;;5.43;75.02
58879;BME280;44660;42.664;23.266;2022-11-15T07:23:09;95018.72;;;5.54;74.77
58879;BME280;44660;42.664;23.266;2022-11-15T07:25:35;95000.84;;;5.43;74.63
58879;BME280;44660;42.664;23.266;2022-11-15T07:28:00;95005.75;;;5.53;74.59
58879;BME280;44660;42.664;23.266;2022-11-15T07:30:26;95014.03;;;5.43;75.00
58879;BME280;44660;42.664;23.266;2022-11-15T07:32:56;95004.84;;;5.26;75.53
58879;BME280;44660;42.664;23.266;2022-11-15T07:35:22;95021.78;;;5.51;75.24
58879;BME280;44660;42.664;23.266;2022-11-15T07:37:59;95016.94;;;5.55;74.97
58879;BME280;44660;42.664;23.266;2022-11-15T07:40:26;95023.03;;;5.69;74.71
58879;BME280;44660;42.664;23.266;2022-11-15T07:42:51;94995.81;;;5.62;74.22
58879;BME280;44660;42.664;23.266;2022-11-15T07:45:21;95026.09;;;5.93;73.97
58879;BME280;44660;42.664;23.266;2022-11-15T07:47:49;95033.59;;;5.69;74.34
58879;BME280;44660;42.664;23.266;2022-11-15T07:50:26;95024.47;;;5.71;74.31
58879;BME280;44660;42.664;23.266;2022-11-15T07:52:59;95019.38;;;5.70;74.56
58879;BME280;44660;42.664;23.266;2022-11-15T07:55:27;95016.72;;;5.56;74.80
58879;BME280;44660;42.664;23.266;2022-11-15T07:57:53;94975.03;;;5.18;75.25
58879;BME280;44660;42.664;23.266;2022-11-15T08:00:24;95018.50;;;5.36;75.75
58879;BME280;44660;42.664;23.266;2022-11-15T08:02:50;95013.00;;;5.31;76.02
58879;BME280;44660;42.664;23.266;2022-11-15T08:05:15;95014.44;;;5.33;75.98
58879;BME280;44660;42.664;23.266;2022-11-15T08:07:41;95023.19;;;5.47;75.56
58879;BME280;44660;42.664;23.266;2022-11-15T08:10:07;95023.56;;;5.37;75.38
58879;BME280;44660;42.664;23.266;2022-11-15T08:12:33;94996.78;;;5.34;75.23
58879;BME280;44660;42.664;23.266;2022-11-15T08:14:58;95001.31;;;5.67;74.48
58879;BME280;44660;42.664;23.266;2022-11-15T08:17:24;95014.72;;;5.79;74.52
58879;BME280;44660;42.664;23.266;2022-11-15T08:19:52;94983.44;;;5.62;74.06
58879;BME280;44660;42.664;23.266;2022-11-15T08:22:18;95002.16;;;5.87;73.69
58879;BME280;44660;42.664;23.266;2022-11-15T08:24:44;94978.59;;;5.93;72.67
58879;BME280;44660;42.664;23.266;2022-11-15T08:27:10;94932.09;;;5.78;72.17
58879;BME280;44660;42.664;23.266;2022-11-15T08:29:43;94979.03;;;6.03;72.24
58879;BME280;44660;42.664;23.266;2022-11-15T08:32:09;94996.06;;;5.80;72.76
58879;BME280;44660;42.664;23.266;2022-11-15T08:34:36;94973.28;;;5.66;73.21
58879;BME280;44660;42.664;23.266;2022-11-15T08:37:02;95004.56;;;5.82;73.29
58879;BME280;44660;42.664;23.266;2022-11-15T08:39:27;94977.78;;;5.72;73.44
58879;BME280;44660;42.664;23.266;2022-11-15T08:41:53;94952.41;;;5.64;73.16
58879;BME280;44660;42.664;23.266;2022-11-15T08:44:19;94993.66;;;6.12;72.53
58879;BME280;44660;42.664;23.266;2022-11-15T08:46:47;94979.03;;;6.23;72.00
58879;BME280;44660;42.664;23.266;2022-11-15T08:49:13;94978.19;;;6.36;71.54
58879;BME280;44660;42.664;23.266;2022-11-15T08:51:39;94988.34;;;6.59;71.27
58879;BME280;44660;42.664;23.266;2022-11-15T08:54:04;94982.41;;;6.70;70.89
58879;BME280;44660;42.664;23.266;2022-11-15T08:56:30;94973.19;;;6.86;70.24
58879;BME280;44660;42.664;23.266;2022-11-15T08:58:56;94957.34;;;6.86;70.09
58879;BME280;44660;42.664;23.266;2022-11-15T09:01:22;94978.06;;;6.96;69.93
58879;BME280;44660;42.664;23.266;2022-11-15T09:03:48;94969.13;;;6.84;70.02
58879;BME280;44660;42.664;23.266;2022-11-15T09:06:13;94951.72;;;6.69;70.42
58879;BME280;44660;42.664;23.266;2022-11-15T09:08:40;94971.16;;;6.89;70.35
58879;BME280;44660;42.664;23.266;2022-11-15T09:11:07;94953.47;;;6.96;69.64
58879;BME280;44660;42.664;23.266;2022-11-15T09:13:33;94922.00;;;6.74;69.50
58879;BME280;44660;42.664;23.266;2022-11-15T09:16:00;94957.75;;;6.83;69.70
58879;BME280;44660;42.664;23.266;2022-11-15T09:18:26;94956.59;;;6.66;70.43
58879;BME280;44660;42.664;23.266;2022-11-15T09:20:58;94890.69;;;6.12;70.99
58879;BME280;44660;42.664;23.266;2022-11-15T09:23:24;94947.81;;;6.79;71.08
58879;BME280;44660;42.664;23.266;2022-11-15T09:25:50;94954.50;;;6.81;70.69
58879;BME280;44660;42.664;23.266;2022-11-15T09:28:16;94944.66;;;7.02;70.07
58879;BME280;44660;42.664;23.266;2022-11-15T09:30:41;94934.94;;;6.96;69.71
58879;BME280;44660;42.664;23.266;2022-11-15T09:33:08;94937.81;;;6.88;70.12
58879;BME280;44660;42.664;23.266;2022-11-15T09:35:34;94905.34;;;6.74;69.73
58879;BME280;44660;42.664;23.266;2022-11-15T09:37:59;94937.34;;;7.04;69.50
58879;BME280;44660;42.664;23.266;2022-11-15T09:40:25;94847.88;;;6.56;69.24
58879;BME280;44660;42.664;23.266;2022-11-15T09:43:48;94932.00;;;7.11;68.95
58879;BME280;44660;42.664;23.266;2022-11-15T09:46:04;94922.50;;;7.35;68.51
58879;BME280;44660;42.664;23.266;2022-11-15T09:51:45;94871.66;;;7.33;67.47
58879;BME280;44660;42.664;23.266;2022-11-15T09:54:34;94913.28;;;7.76;66.90
58879;BME280;44660;42.664;23.266;2022-11-15T09:59:51;94894.75;;;8.01;65.74
58879;BME280;44660;42.664;23.266;2022-11-15T10:05:38;94874.28;;;8.53;63.48
58879;BME280;44660;42.664;23.266;2022-11-15T10:10:52;94868.25;;;9.67;60.15
58879;BME280;44660;42.664;23.266;2022-11-15T10:13:24;94863.41;;;10.11;59.27
58879;BME280;44660;42.664;23.266;2022-11-15T10:15:51;94828.41;;;10.50;57.25
58879;BME280;44660;42.664;23.266;2022-11-15T10:18:29;94871.06;;;11.42;56.02
58879;BME280;44660;42.664;23.266;2022-11-15T10:21:12;94854.31;;;11.75;53.99
58879;BME280;44660;42.664;23.266;2022-11-15T10:23:41;94863.69;;;12.12;53.54
58879;BME280;44660;42.664;23.266;2022-11-15T10:26:11;94850.44;;;12.17;52.41
58879;BME280;44660;42.664;23.266;2022-11-15T10:28:38;94847.22;;;12.15;53.05
58879;BME280;44660;42.664;23.266;2022-11-15T10:31:24;94834.53;;;12.45;52.18
58879;BME280;44660;42.664;23.266;2022-11-15T10:33:51;94830.00;;;12.45;51.37
58879;BME280;44660;42.664;23.266;2022-11-15T10:36:24;94825.56;;;12.51;51.18
58879;BME280;44660;42.664;23.266;2022-11-15T10:41:21;94829.41;;;12.21;52.04
58879;BME280;44660;42.664;23.266;2022-11-15T10:46:43;94815.81;;;12.39;51.81
58879;BME280;44660;42.664;23.266;2022-11-15T10:49:38;94812.47;;;12.71;51.13
58879;BME280;44660;42.664;23.266;2022-11-15T10:52:19;94814.06;;;12.28;51.75
58879;BME280;44660;42.664;23.266;2022-11-15T10:57:21;94804.03;;;12.57;51.41
58879;BME280;44660;42.664;23.266;2022-11-15T10:59:59;94797.88;;;12.79;51.20
58879;BME280;44660;42.664;23.266;2022-11-15T11:02:38;94786.91;;;13.03;50.39
58879;BME280;44660;42.664;23.266;2022-11-15T11:05:44;94786.56;;;12.94;50.82
58879;BME280;44660;42.664;23.266;2022-11-15T11:10:37;94783.34;;;13.19;50.25
58879;BME280;44660;42.664;23.266;2022-11-15T11:15:51;94778.69;;;13.69;49.25
58879;BME280;44660;42.664;23.266;2022-11-15T11:18:26;94768.88;;;13.80;48.60
58879;BME280;44660;42.664;23.266;2022-11-15T11:21:03;94749.28;;;13.69;48.33
58879;BME280;44660;42.664;23.266;2022-11-15T11:23:53;94759.59;;;13.88;48.88
58879;BME280;44660;42.664;23.266;2022-11-15T11:34:17;94713.63;;;13.16;49.87
58879;BME280;44660;42.664;23.266;2022-11-15T11:37:03;94733.44;;;12.93;51.42
58879;BME280;44660;42.664;23.266;2022-11-15T11:47:40;94705.53;;;12.78;51.20
58879;BME280;44660;42.664;23.266;2022-11-15T11:50:19;94711.59;;;13.28;50.28
58879;BME280;44660;42.664;23.266;2022-11-15T11:53:14;94701.13;;;13.54;49.49
58879;BME280;44660;42.664;23.266;2022-11-15T11:55:51;94696.00;;;13.47;49.52
58879;BME280;44660;42.664;23.266;2022-11-15T11:58:38;94687.28;;;13.30;49.91
58879;BME280;44660;42.664;23.266;2022-11-15T12:04:16;94682.47;;;12.94;51.39
58879;BME280;44660;42.664;23.266;2022-11-15T12:06:50;94676.97;;;13.06;50.04
58879;BME280;44660;42.664;23.266;2022-11-15T12:14:55;94676.63;;;12.97;49.65
58879;BME280;44660;42.664;23.266;2022-11-15T12:17:26;94667.34;;;13.05;49.36
58879;BME280;44660;42.664;23.266;2022-11-15T12:19:57;94622.53;;;12.74;49.47
58879;BME280;44660;42.664;23.266;2022-11-15T12:22:38;94639.75;;;12.89;49.38
58879;BME280;44660;42.664;23.266;2022-11-15T12:25:16;94641.88;;;12.92;49.55
58879;BME280;44660;42.664;23.266;2022-11-15T12:28:17;94648.16;;;12.76;49.70
58879;BME280;44660;42.664;23.266;2022-11-15T12:30:53;94649.25;;;12.80;50.17
58879;BME280;44660;42.664;23.266;2022-11-15T12:33:41;94640.44;;;12.79;49.90
58879;BME280;44660;42.664;23.266;2022-11-15T12:36:29;94635.81;;;12.69;50.05
58879;BME280;44660;42.664;23.266;2022-11-15T12:38:57;94640.44;;;12.79;49.91
58879;BME280;44660;42.664;23.266;2022-11-15T12:43:56;94623.63;;;12.73;50.06
58879;BME280;44660;42.664;23.266;2022-11-15T12:48:59;94631.44;;;12.85;50.06
58879;BME280;44660;42.664;23.266;2022-11-15T12:59:55;94627.59;;;12.71;50.43
58879;BME280;44660;42.664;23.266;2022-11-15T13:02:32;94620.13;;;12.73;50.38
58879;BME280;44660;42.664;23.266;2022-11-15T13:08:01;94610.94;;;12.58;50.72
58879;BME280;44660;42.664;23.266;2022-11-15T13:12:55;94615.41;;;12.53;51.02
58879;BME280;44660;42.664;23.266;2022-11-15T13:17:56;94598.88;;;12.51;50.90
58879;BME280;44660;42.664;23.266;2022-11-15T13:20:29;94608.75;;;12.55;51.04
58879;BME280;44660;42.664;23.266;2022-11-15T13:25:33;94597.38;;;12.65;50.44
58879;BME280;44660;42.664;23.266;2022-11-15T13:28:20;94560.94;;;12.44;50.62
58879;BME280;44660;42.664;23.266;2022-11-15T13:33:30;94594.78;;;12.76;50.18
58879;BME280;44660;42.664;23.266;2022-11-15T13:36:02;94576.69;;;12.45;50.56
58879;BME280;44660;42.664;23.266;2022-11-15T13:38:30;94580.28;;;12.61;50.69
58879;BME280;44660;42.664;23.266;2022-11-15T13:40:58;94592.69;;;12.78;50.45
58879;BME280;44660;42.664;23.266;2022-11-15T13:43:29;94594.38;;;12.56;50.92
58879;BME280;44660;42.664;23.266;2022-11-15T13:46:33;94588.25;;;12.56;51.01
58879;BME280;44660;42.664;23.266;2022-11-15T13:49:08;94590.25;;;12.71;50.67
58879;BME280;44660;42.664;23.266;2022-11-15T13:51:52;94585.06;;;12.59;51.03
58879;BME280;44660;42.664;23.266;2022-11-15T13:54:30;94597.38;;;12.65;50.88
58879;BME280;44660;42.664;23.266;2022-11-15T13:56:59;94572.06;;;12.68;50.63
58879;BME280;44660;42.664;23.266;2022-11-15T13:59:30;94580.97;;;12.46;51.26
58879;BME280;44660;42.664;23.266;2022-11-15T14:01:58;94578.41;;;12.29;51.68
58879;BME280;44660;42.664;23.266;2022-11-15T14:04:27;94563.75;;;12.04;51.90
58879;BME280;44660;42.664;23.266;2022-11-15T14:06:59;94587.19;;;12.02;52.52
58879;BME280;44660;42.664;23.266;2022-11-15T14:09:33;94587.56;;;11.89;52.92
58879;BME280;44660;42.664;23.266;2022-11-15T14:11:59;94560.75;;;11.51;53.31
58879;BME280;44660;42.664;23.266;2022-11-15T14:14:27;94575.94;;;11.51;53.56
58879;BME280;44660;42.664;23.266;2022-11-15T14:16:58;94564.41;;;11.23;54.18
58879;BME280;44660;42.664;23.266;2022-11-15T14:24:33;94575.19;;;10.77;55.84
58879;BME280;44660;42.664;23.266;2022-11-15T14:27:19;94579.19;;;10.62;57.00
58879;BME280;44660;42.664;23.266;2022-11-15T14:29:45;94549.97;;;10.45;58.53
58879;BME280;44660;42.664;23.266;2022-11-15T14:32:17;94588.47;;;10.43;58.37
58879;BME280;44660;42.664;23.266;2022-11-15T14:34:43;94571.88;;;10.36;59.31
58879;BME280;44660;42.664;23.266;2022-11-15T14:37:20;94585.09;;;10.48;59.10
58879;BME280;44660;42.664;23.266;2022-11-15T14:39:47;94576.63;;;10.51;58.81
58879;BME280;44660;42.664;23.266;2022-11-15T14:42:12;94590.59;;;10.29;58.78
58879;BME280;44660;42.664;23.266;2022-11-15T14:44:38;94575.69;;;10.28;59.34
58879;BME280;44660;42.664;23.266;2022-11-15T14:47:03;94558.81;;;10.05;59.28
58879;BME280;44660;42.664;23.266;2022-11-15T14:49:29;94594.69;;;10.20;59.46
58879;BME280;44660;42.664;23.266;2022-11-15T14:51:54;94560.50;;;9.94;59.46
58879;BME280;44660;42.664;23.266;2022-11-15T14:54:20;94541.94;;;9.83;59.55
58879;BME280;44660;42.664;23.266;2022-11-15T14:56:45;94569.34;;;10.00;59.77
58879;BME280;44660;42.664;23.266;2022-11-15T14:59:10;94578.84;;;9.96;59.76